Pinsonfork, Kentucky
Current Conditions -  °F | °C
As of 12:15 AM on Saturday 25 Oct 2014 (Local Time) from KPBX Reporting Station
Clear Clear  
Wind Chill: 45°   Ceiling: Unl
Heat Index: 47°   Visibility: 10mi
Dew Point: 42°   Wind: 6mph
Humidity: 82%   Direction: 170°S
Pressure: 30.07"   Gusts: NA
Location:  37.55°N, 82.26°W
Report Text: KPBX 250415Z AUTO 17005KT 10SM CLR 09/06 A3007 RMK AO2 T00860056
Loading
Personal Weather Stations






























Interactive Weather Map
Tropical Storm Tracking
New forecast layout! Learn more

10-Day Weather Forecast

Advertisements
Track Severe Weather on mobile